Estación Meteorológica Peña el Pijo (Robertgarden) [ 12/15/17 20:49:39 CET ]

Fecha Hora Presion(HPa) Temp (°C) Humedad % Rocio (°C) Viento ( m/s) Direccion Lluvia 1Hora(mm) Lluvia 24H(mm) LLuvia Total(mm)
2017-Jun-14 01:01:35 1010.000 16.4 62 9.1         1427.09
2017-Jun-14 02:01:45 1009.900 15.1 66 8.8         1427.09
2017-Jun-14 03:02:02 1009.600 14.1 70 8.7         1427.09
2017-Jun-14 04:02:08 1009.500 13.3 73 8.5         1427.09
2017-Jun-14 05:02:16 1009.800 12.9 75 8.5         1427.09
2017-Jun-14 06:02:13 1009.700 12.6 76 8.5         1427.09
2017-Jun-14 07:01:43 1009.900 12.3 77 8.4         1427.09
2017-Jun-14 08:01:41 1010.300 15.3 78 11.5         1427.09
2017-Jun-14 09:01:39 1010.100 23.0 59 14.5         1427.09
2017-Jun-14 10:01:49 1010.200 28.1 45 15.0         1427.09
2017-Jun-14 11:01:37 1010.000 31.4 33 13.1 3.1 SSE     1427.09
2017-Jun-14 12:01:54 1010.100 34.5 30 14.4         1427.09
2017-Jun-14 13:01:40 1010.300 35.6 27 13.5         1427.09
2017-Jun-14 14:01:40 1010.100 35.9 26 13.2         1427.09
2017-Jun-14 15:01:38 1009.700 37.4 24 13.2         1427.09
2017-Jun-14 16:01:35 1009.600 38.1 23 13.2         1427.09
2017-Jun-14 17:01:45 1009.100 34.3 26 11.8         1427.09
2017-Jun-14 18:02:00 1009.700 30.3 38 14.4         1427.09
2017-Jun-14 19:01:39 1009.300 28.4 45 15.3         1427.09
2017-Jun-14 20:02:03 1009.600 26.6 44 13.3         1427.09
2017-Jun-14 21:01:46 1010.100 24.2 52 13.7         1427.09
2017-Jun-14 22:01:55 1010.700 22.3 57 13.3         1427.09
2017-Jun-14 23:02:01 1011.400 21.3 59 13.0         1427.09

Temperatura Máxima:38°    Temperatura Mínima:12°
Presión Máxima:1011.400 Hpa    Presión Mínima:1009.100 Hpa


Volver